Tiempo atmosférico en la estación meteorológica de La Pinilla, estación de esquí, Segovia (1860 m.)



Fecha
DESCASC
Temp. máxima en grados centígrados (hora)
DESCASC
Temp. mínima en grados centígrados (hora)
DESCASC
Temp. media en grados centígrados
DESCASC
Racha de viento máxima en m/sg (hora)
DESCASC
Velocidad máxima media en intervalos de 10 minutos(hora)
DESCASC
Precipitaciones diarias en mm
DESCASC
Precipitaciones de 00:00 a 06:00 en mm
DESCASC
Precipitaciones de 06:00 a 12:00 en mm
DESCASC
Precipitaciones de 12:00 a 18:00 en mm
DESCASC
Precipitaciones de 18:00 a 24:00 en mm
DESCASC
14-12-2019 1.9 (00:00) -0.1 (09:50) 0.9 18.61 (01:10) 6.11 (01:10) 0 0 0 0 0
13-12-2019 4.5 (03:00) 1.9 (23:59) 3.2 27.5 (07:10) 9.72 (07:10) 9.2 8 0.4 0.4 0.4
12-12-2019 4.1 (23:59) -2.6 (00:00) 0.8 34.72 (17:00) 10.28 (17:00) 41.4 0 2.4 14.6 24.4
11-12-2019 4.3 (00:00) -3 (-00:0) 0.7 19.17 (19:50) 7.22 (19:50) 3 0 3 0 0
10-12-2019 10.9 (13:40) -1.5 (00:20) 4.7 9.44 (01:10) 4.44 (23:50) 0 0 0 0 0
09-12-2019 4.6 (14:30) -1.4 (22:10) 1.6 11.39 (01:20) 4.72 (01:20) 0 0 0 0 0
08-12-2019 4.6 (03:50) 1.6 (00:00) 3.1 10 (20:40) 4.44 (07:50) 12.4 0 0 6.6 5.8
07-12-2019 10.5 (13:50) 0.9 (00:00) 5.7 6.39 (06:20) 4.44 (06:10) 0 0 0 0 0
06-12-2019 9.2 (13:40) 0 (00:00) 4.6 15.83 (02:00) 12.78 (02:00) 0 0 0 0 0
05-12-2019 3.6 (15:10) 0.1 (00:00) 1.8 20.83 (20:50) 11.67 (21:40) 0 0 0 0 0
04-12-2019 2.6 (10:30) 0.4 (02:20) 1.5 16.67 (07:30) 10 (06:10) 0.4 0.2 0.2 0 0
03-12-2019 6.7 (13:50) -2.2 (-00:0) 2.2 14.72 (22:00) 8.33 (19:00) 0 0 0 0 0
02-12-2019 2.3 (14:00) -1.9 (-00:0) 0.2 20.56 (10:50) 11.67 (04:40) 0 0 0 0 0
01-12-2019 1.8 (12:30) -2.1 (-00:0) -0.1 15 (23:20) 10.28 (23:30) 3.2 0.8 0.2 1.8 0.4
30-11-2019 6.6 (11:10) -1.5 (-00:0) 2.5 19.17 (16:20) 10 (12:00) 16.8 3.6 0 7.4 5.8
29-11-2019 6.6 (12:20) 4.1 (00:00) 5.3 22.78 (00:30) 6.39 (01:10) 25.4 15.6 5.4 3.6 0.8
28-11-2019 5.4 (23:40) 1.9 (00:40) 3.7 21.39 (20:00) 7.5 (14:40) 2.6 0.2 0.6 0 1.8
27-11-2019 4.1 (00:00) 0.4 (00:00) 2.2 26.94 (00:30) 7.78 (00:20) 0.2 0.2 0 0 0
26-11-2019 9 (15:00) 2.2 (00:00) 5.6 26.67 (21:10) 13.89 (17:50) 8 0 2.8 1.2 4
25-11-2019 6.2 (01:20) 2.8 (08:30) 4.5 26.11 (02:20) 8.33 (02:40) 5.4 5.2 0.2 0 0
24-11-2019 5.6 (23:59) -2.4 (-00:0) 1.6 17.78 (21:10) 6.94 (23:20) 3 0 0 1 2
23-11-2019 0.1 (00:00) -2.8 (-00:0) -1.3 24.72 (00:10) 8.89 (09:20) 8.2 3.8 1 2 1.4
22-11-2019 3.2 (16:50) -0.7 (-00:0) 1.3 28.06 (12:30) 15 (09:50) 39 2.4 18.2 13.6 4.8
21-11-2019 1.9 (15:20) -1.1 (-00:0) 0.4 15.56 (14:50) 11.67 (23:10) 3.6 0.2 2 1.2 0.2
20-11-2019 3.6 (12:40) -3.3 (00:10) 0.1 15.83 (16:20) 11.39 (15:20) 0 0 0 0 0
19-11-2019 -0.2 (15:00) -4.7 (-00:0) -2.4 6.11 (00:30) 3.61 (19:20) 0.2 0 0 0.2 0
18-11-2019 -2.2 (14:10) -3.5 (-00:0) -2.9 14.72 (15:10) 7.78 (15:10) 0 0 0 0 0
17-11-2019 1.9 (16:10) -4 (-00:0) -1.1 22.78 (12:00) 8.61 (19:30) 0 0 0 0 0
16-11-2019 -2.7 (20:00) -5.4 (-00:0) -4.1 12.78 (19:30) 4.72 (19:10) 0 0 0 0 0
15-11-2019 -3 (16:20) -4.4 (-00:0) -3.7 17.5 (04:00) 6.39 (04:00) 0 0 0 0 0

Gráficas

Temp. máximas Temp. mínimas Temp. medias Precipitaciones Rachas de viento máximas Velocidades máximas media en intervalos de 10 minutos

Datos horarios

Fecha y hora oficial Temperatura (ºC) Velocidad del viento (km/h) Dirección del viento Racha (km/h) Dirección de racha Precipitación (mm) Presión (hPa) Tendencia (hPa) Humedad (%)
2019-12-14 23:00:00 1 10 Sudeste 40 Noroeste 0 819.4 -0.4 99
2019-12-14 22:00:00 1 9 Norte 33 Sudoeste 0 819.6 0.2 99
2019-12-14 21:00:00 1.1 13 Sudoeste 37 Noroeste 0 819.6 0.1 99
2019-12-14 20:00:00 1.4 9 Noroeste 47 Oeste 0 819.8 0.4 99
2019-12-14 19:00:00 1.6 12 Norte 50 Noroeste 0 819.4 -0.1 99
2019-12-14 18:00:00 1.1 12 Sudeste 43 Noroeste 0 819.5 0.1 99
2019-12-14 17:00:00 1.1 11 Norte 39 Noroeste 0 819.4 -0.6 99
2019-12-14 16:00:00 1.3 11 Oeste 36 Noroeste 0 819.5 -0.9 99
2019-12-14 15:00:00 1.3 10 Oeste 47 Noroeste 0 819.4 -1.6 99
2019-12-14 14:00:00 1 14 Oeste 35 Noroeste 0 820 -1.2 100
2019-12-14 13:00:00 0.7 9 Oeste 40 Sur 0 820.4 -0.3 100
2019-12-14 12:00:00 0.4 9 Este 36 Sur 0 821 0.4 100
2019-12-14 11:00:00 0.2 12 Nordeste 54 Noroeste 0 821.2 0.7 100
2019-12-14 10:00:00 -0.1 11 Nordeste 50 Noroeste 0 820.7 0.4 100
2019-12-14 09:00:00 0 15 Oeste 49 Noroeste 0 820.6 0.6 100
2019-12-14 08:00:00 0.1 15 Noroeste 41 Oeste 0 820.5 0.3 100
2019-12-14 07:00:00 0.5 14 Oeste 60 Oeste 0 820.3 -0.2 100
2019-12-14 06:00:00 0.8 18 Noroeste 54 Noroeste 0 820 -0.7 100
2019-12-14 05:00:00 0.8 15 Nordeste 51 Noroeste 0 820.2 -0.2 100
2019-12-14 04:00:00 0.7 14 Sur 48 Noroeste 0 820.5 0 100
2019-12-14 03:00:00 0.9 18 Norte 60 Oeste 0 820.7 0.4 100
2019-12-14 02:00:00 1.8 14 Noroeste 67 Oeste 0 820.4 0 99
2019-12-14 01:00:00 1.8 13 Noroeste 58 Noroeste 0 820.5 0.4 99
2019-12-14 00:00:00 1.9 20 Sur 57 Norte 0.2 820.3 0.2 99
2019-12-13 23:00:00 2.1 19 Norte 71 Norte 0 820.4 0.8 99
2019-12-13 22:00:00 2.7 20 Este 67 Noroeste 0 820.1 0.6 99
2019-12-13 21:00:00 3.1 17 Oeste 67 Noroeste 0 820.1 1.1 99
2019-12-13 20:00:00 3.4 22 Sudeste 77 Norte 0 819.6 0.7 99
2019-12-13 19:00:00 3.7 20 Norte 76 Norte 0.2 819.5 0.8 99
2019-12-13 18:00:00 4.2 24 Nordeste 79 Noroeste 0 819 0.6 99
2019-12-13 17:00:00 4.5 26 Norte 80 Noroeste 0 818.9 0.4 98
2019-12-13 16:00:00 4.4 34 Noroeste 83 Noroeste 0.2 818.7 0 98
2019-12-13 15:00:00 4.4 30 Norte 78 Noroeste 0 818.4 -0.2 98
2019-12-13 14:00:00 4.2 32 Norte 86 Noroeste 0.2 818.5 -0.1 99
2019-12-13 13:00:00 3.9 25 Norte 83 Noroeste 0 818.7 0.8 99
2019-12-13 12:00:00 3.5 22 Nordeste 70 Nordeste 0 818.6 1.5 99
2019-12-13 11:00:00 3 21 Nordeste 77 Norte 0 818.6 1.7 99
2019-12-13 10:00:00 2.6 21 Nordeste 77 Sudoeste 0.2 817.9 1.8 99
2019-12-13 09:00:00 2.5 24 Este 80 Oeste 0 817.1 1.3 99
2019-12-13 08:00:00 3 27 Nordeste 99 Norte 0 816.9 0.8 99
2019-12-13 07:00:00 3.5 33 Norte 86 Norte 0.2 816.1 -0.4 99
2019-12-13 06:00:00 3.7 24 Nordeste 70 Noroeste 0.2 815.8 -0.4 99
2019-12-13 05:00:00 4.2 20 Nordeste 78 Norte 1.8 816.1 0.6 98
2019-12-13 04:00:00 4.4 27 Nordeste 80 Norte 2.8 816.5 0.9 98
2019-12-13 03:00:00 4.4 18 Este 66 Noroeste 1.4 816.2 0.2 98
2019-12-13 02:00:00 4.4 23 Norte 73 Oeste 0.6 815.5 -0.1 98
2019-12-13 01:00:00 4.1 19 Sudeste 57 Sudoeste 1.2 815.6 0.2 98
2019-12-13 00:00:00 4.1 21 Norte 58 Sudoeste 3.2 816 0.3 98
2019-12-12 23:00:00 3.8 18 Este 73 Norte 3.8 815.6 0.4 99
2019-12-12 22:00:00 3.4 22 Nordeste 61 Sudoeste 3.4 815.4 0.6 99
2019-12-12 21:00:00 3 23 Norte 64 Noroeste 5 815.7 0.6 99
2019-12-12 20:00:00 2.3 23 Nordeste 86 Oeste 5 815.2 -0.1 99
2019-12-12 19:00:00 1.6 21 Norte 82 Oeste 4 814.8 -0.7 99
2019-12-12 18:00:00 0.6 26 Norte 94 Noroeste 3.8 815.1 -0.4 99
2019-12-12 17:00:00 0 37 Noroeste 125 Noroeste 3.2 815.3 -1.5 99
2019-12-12 16:00:00 -0.1 24 Sudoeste 117 Noroeste 3.2 815.5 -2.1 99
2019-12-12 15:00:00 -0.2 27 Noroeste 89 Noroeste 1.6 815.5 -3.5 99
2019-12-12 14:00:00 -0.7 25 Oeste 85 Noroeste 1.6 816.8 -2.9 99
2019-12-12 13:00:00 -0.8 23 Sudeste 78 Oeste 1.2 817.6 -2.5 99
2019-12-12 12:00:00 -0.9 19 Norte 86 Noroeste 1.2 819 -0.7 99
2019-12-12 11:00:00 -1.2 20 Nordeste 74 Noroeste 1.2 819.7 -0.4 99
2019-12-12 10:00:00 -1.1 16 Norte 67 Norte 0 820.1 -0.3 99
2019-12-12 09:00:00 -1.1 21 Nordeste 67 Norte 0 819.7 -0.9 99
2019-12-12 08:00:00 -1.5 14 Sudeste 61 Oeste 0 820.1 -1 99
2019-12-12 07:00:00 -1.8 14 Este 55 Noroeste 0 820.4 -1.2 99
2019-12-12 06:00:00 -1.9 15 Sudoeste 53 Noroeste 0 820.6 -1.3 99
2019-12-12 05:00:00 -2.1 14 Este 46 Norte 0 821.1 -1.3 99
2019-12-12 04:00:00 -2.3 14 Nordeste 48 Norte 0 821.6 -0.9 99
2019-12-12 03:00:00 -2.5 15 Este 51 Nordeste 0 821.9 -1 99
2019-12-12 02:00:00 -2.6 19 Norte 68 Norte 0 822.4 -0.6 99
2019-12-12 01:00:00 -2.5 19 Nordeste 46 Nordeste 0 822.5 -0.8 99
2019-12-12 00:00:00 -2.6 15 Este 60 Norte 0 822.9 -0.8 99
2019-12-11 23:00:00 -2.6 19 Nordeste 64 Sudoeste 0 823 -0.8 99
2019-12-11 22:00:00 -2.6 16 Este 57 Sudoeste 0 823.3 -0.5 98
2019-12-11 21:00:00 -2.6 19 Este 48 Nordeste 0 823.7 0.1 99
2019-12-11 20:00:00 -2.3 20 Norte 69 Noroeste 0 823.8 0.7 99
2019-12-11 19:00:00 -3 14 Noroeste 46 Oeste 0 823.8 0.8 98
2019-12-11 18:00:00 -2.4 11 Noroeste 46 Noroeste 0 823.6 1.1 99
2019-12-11 17:00:00 -1.5 13 Noroeste 46 Noroeste 0 823.1 0.8 99
2019-12-11 16:00:00 -1.2 12 Norte 48 Oeste 0 823 0.8 99
2019-12-11 15:00:00 -1.2 22 Norte 53 Noroeste 0 822.5 -0.1 99
2019-12-11 14:00:00 -1.1 15 Noroeste 55 Oeste 0 822.3 -0.5 99
2019-12-11 13:00:00 -1.1 14 Noroeste 54 Noroeste 0 822.2 -0.3 99
2019-12-11 12:00:00 -0.4 19 Norte 49 Norte 0.6 822.6 0 99
2019-12-11 11:00:00 -0.1 16 Este 54 Noroeste 2 822.8 0.5 99
2019-12-11 10:00:00 0.9 14 Sudoeste 62 Sur 0.4 822.5 -0.3 98
2019-12-11 09:00:00 0.8 11 Noroeste 48 Oeste 0 822.6 -0.1 95
2019-12-11 08:00:00 3.1 20 Noroeste 57 Noroeste 0 822.3 -1 73
2019-12-11 07:00:00 2.9 13 Noroeste 55 Noroeste 0 822.8 -1.3 50
2019-12-11 06:00:00 3.6 9 Este 50 Noroeste 0 822.7 -1.9 52
2019-12-11 05:00:00 3.3 10 Norte 37 Noroeste 0 823.3 -1.8 23
2019-12-11 04:00:00 3.1 8 Oeste 32 Sudeste 0 824.1 -1.5 27
2019-12-11 03:00:00 3.5 9 Este 33 Noroeste 0 824.6 -1.3 30
2019-12-11 02:00:00 4.1 10 Este 28 Sudeste 0 825.1 -1 35
2019-12-11 01:00:00 4.1 12 Sudeste 27 Noroeste 0 825.6 -1 45
2019-12-11 00:00:00 4.3 15 Sur 28 Sudoeste 0 825.9 -0.9 45
2019-12-10 23:00:00 2.6 14 Sur 24 Sudoeste 0 826.1 -0.8 36
2019-12-10 22:00:00 3.5 14 Sur 31 Sur 0 826.6 -0.3 31
2019-12-10 21:00:00 4.2 14 Sur 24 Sudoeste 0 826.8 -0.1 25
2019-12-10 20:00:00 4.2 14 Sur 24 Sudeste 0 826.9 -0.5 22
2019-12-10 19:00:00 5.6 10 Sur 28 Sudoeste 0 826.9 -0.6 19
2019-12-10 18:00:00 5.9 13 Sur 23 Sur 0 826.9 -0.9 18
2019-12-10 17:00:00 4.6 7 Sudoeste 20 Sur 0 827.4 -1.1 30
2019-12-10 16:00:00 5.4 10 Sur 20 Sur 0 827.5 -1.4 24
2019-12-10 15:00:00 9 6 Sudoeste 16 Oeste 0 827.8 -1.7 22
2019-12-10 14:00:00 8.4 8 Oeste 14 Sudoeste 0 828.5 -1.3 24
2019-12-10 13:00:00 8.5 6 Sur 13 Sur 0 828.9 -0.6 23
2019-12-10 12:00:00 8 3 Norte 9 Nordeste 0 829.5 0.3 27
2019-12-10 11:00:00 3.1 6 Sur 9 Sudoeste 0 829.8 0.7 31
2019-12-10 10:00:00 3.4 4 Sur 14 Sudeste 0 829.5 0.2 28
2019-12-10 09:00:00 3 9 Sur 19 Sudeste 0 829.2 -0.1 27
2019-12-10 08:00:00 2.6 10 Sudeste 17 Sudeste 0 829.1 -0.3 27
2019-12-10 07:00:00 2.9 7 Sudeste 18 Sudeste 0 829.3 -0.7 23
2019-12-10 06:00:00 1.6 7 Este 15 Sudeste 0 829.3 -0.8 27
2019-12-10 05:00:00 3.2 10 Sudeste 22 Sudeste 0 829.4 -0.7 23
2019-12-10 04:00:00 0.4 8 Sudeste 21 Este 0 830 -0.4 45
2019-12-10 03:00:00 1.1 8 Sudeste 25 Este 0 830.1 -0.3 43
2019-12-10 02:00:00 1.7 7 Sudeste 34 Este 0 830.1 -0.2 48
2019-12-10 01:00:00 0.7 10 Sur 22 Sudoeste 0 830.4 0 59
2019-12-10 00:00:00 -0.9 5 Sudeste 21 Sur 0 830.4 0.1 93
2019-12-09 23:00:00 -1.3 7 Sur 18 Sur 0 830.3 0.2 94
2019-12-09 22:00:00 -1.2 3 Nordeste 10 Nordeste 0 830.4 0.8 95
2019-12-09 21:00:00 -0.7 4 Nordeste 20 Noroeste 0 830.3 0.8 89
2019-12-09 20:00:00 0.2 12 Sur 21 Sudeste 0 830.1 0.6 77
2019-12-09 19:00:00 0 6 Sudeste 17 Este 0 829.6 0.2 71
2019-12-09 18:00:00 0.3 5 Sudeste 15 Sudeste 0 829.5 0.4 66
2019-12-09 17:00:00 1.1 7 Sudoeste 18 Oeste 0 829.5 0.2 81
2019-12-09 16:00:00 1.5 8 Sudoeste 19 Oeste 0 829.4 -0.3 72
2019-12-09 15:00:00 2.5 6 Oeste 28 Sudoeste 0 829.1 -0.5 67
2019-12-09 14:00:00 4.1 9 Sudoeste 33 Oeste 0 829.3 -0.2 58
2019-12-09 13:00:00 4 9 Noroeste 30 Sudoeste 0 829.7 0.8 58
2019-12-09 12:00:00 2.9 8 Nordeste 31 Sudeste 0 829.6 0.9 56
2019-12-09 11:00:00 0.5 14 Sudeste 31 Sur 0 829.5 1 65
2019-12-09 10:00:00 0 9 Oeste 27 Sudoeste 0 828.9 0.6 75
2019-12-09 09:00:00 -0.6 6 Sudeste 28 Sudoeste 0 828.7 0.6 87
2019-12-09 08:00:00 -0.8 9 Noroeste 30 Oeste 0 828.5 0.7 99
2019-12-09 07:00:00 0 13 Oeste 34 Sudoeste 0 828.3 0.4 100
2019-12-09 06:00:00 0.2 9 Noroeste 36 Oeste 0 828.1 0.3 99
2019-12-09 05:00:00 0.6 13 Sudoeste 37 Sudoeste 0 827.8 -0.1 99
2019-12-09 04:00:00 0.7 14 Oeste 38 Sur 0 827.9 -0.2 99
2019-12-09 03:00:00 0.9 13 Sur 32 Oeste 0 827.8 0.4 99
2019-12-09 02:00:00 1.2 6 Oeste 41 Noroeste 0 827.9 0.8 99
2019-12-09 01:00:00 1.6 12 Noroeste 28 Norte 0 828.1 0.7 99
2019-12-09 00:00:00 1.9 10 Sur 19 Sudoeste 0 827.4 0.4 99
2019-12-08 23:00:00 2.8 6 Oeste 25 Oeste 0.4 827.1 0.4 99
2019-12-08 22:00:00 4.1 7 Norte 27 Norte 0.8 827.4 1.3 98
2019-12-08 21:00:00 4.2 9 Noroeste 36 Noroeste 1.2 827 1.2 98
2019-12-08 20:00:00 4.3 9 Noroeste 26 Oeste 1 826.7 1 98
2019-12-08 19:00:00 4.1 8 Este 28 Oeste 2.4 826.1 0.4 98
2019-12-08 18:00:00 3.9 9 Sudeste 34 Norte 1.4 825.8 0.4 98
2019-12-08 17:00:00 4 10 Noroeste 26 Noroeste 1 825.7 0 98
2019-12-08 16:00:00 3.7 9 Oeste 32 Oeste 1.6 825.7 -0.2 98
2019-12-08 15:00:00 3.2 10 Oeste 29 Noroeste 1.8 825.4 -0.8 98
2019-12-08 14:00:00 3.6 13 Sur 28 Sudoeste 0.6 825.7 -0.9 98
2019-12-08 13:00:00 4.5 8 Nordeste 20 Sur 0.2 825.9 -0.2 98
2019-12-08 12:00:00 4 11 Sur 31 Sur 0 826.2 0.1 97
2019-12-08 11:00:00 2.9 12 Sur 24 Sudoeste 0 826.6 0.8 89
2019-12-08 10:00:00 2.9 9 Sudeste 26 Sur 0 826.1 0.8 90
2019-12-08 09:00:00 2.3 9 Sudeste 28 Sudeste 0 826.1 0.6 70
2019-12-08 08:00:00 2.8 10 Sudoeste 34 Sur 0 825.8 0.3 50
2019-12-08 07:00:00 3.4 14 Sur 33 Sudoeste 0 825.3 -0.4 68
2019-12-08 06:00:00 3.1 13 Sur 31 Sudoeste 0 825.5 -0.5 68
2019-12-08 05:00:00 2.6 15 Sur 27 Sudoeste 0 825.5 -0.6 65
2019-12-08 04:00:00 4.3 8 Sur 27 Sudoeste 0 825.7 -0.8 63
2019-12-08 03:00:00 4.1 10 Sur 19 Sur 0 826 -0.5 49
2019-12-08 02:00:00 3.7 13 Sur 23 Sur 0 826.1 -0.4 47
2019-12-08 01:00:00 3.1 16 Sudoeste 23 Oeste 0 826.5 0.1 62
2019-12-08 00:00:00 3.9 6 Sur 14 Sur 0 826.5 0.2 66
2019-12-07 23:00:00 3.8 8 Sur 16 Sudoeste 0 826.5 0.6 49
2019-12-07 22:00:00 3.7 8 Sudoeste 19 Sudoeste 0 826.4 1 56
2019-12-07 21:00:00 2.5 10 Sudoeste 17 Sudoeste 0 826.3 0.8 77
2019-12-07 20:00:00 3.1 9 Sudoeste 14 Sudoeste 0 825.9 0.7 69
2019-12-07 19:00:00 3.1 5 Sur 9 Sudeste 0 825.4 0.5 70
2019-12-07 18:00:00 2.8 4 Nordeste 9 Este 0 825.5 0.7 84
2019-12-07 17:00:00 3.5 4 Este 11 Sur 0 825.2 0.2 74
2019-12-07 16:00:00 5.2 2 Noroeste 12 Sur 0 824.9 -0.3 64
2019-12-07 15:00:00 8.9 4 Noroeste 12 Norte 0 824.8 -0.9 61
2019-12-07 14:00:00 9.6 3 Este 8 Sudeste 0 825 -0.7 55
2019-12-07 13:00:00 9.8 3 Sudoeste 13 Sur 0 825.2 0.1 41
2019-12-07 12:00:00 6.4 9 Sur 12 Sur 0 825.7 0.7 49
2019-12-07 11:00:00 3.1 5 Sudeste 10 Sur 0 825.7 1 64
2019-12-07 10:00:00 3.5 8 Sudeste 12 Sudeste 0 825.1 0.7 59
2019-12-07 09:00:00 2 4 Sudeste 11 Sur 0 825 0.9 67
2019-12-07 08:00:00 1.9 6 Sudeste 14 Sudeste 0 824.7 0.5 66
2019-12-07 07:00:00 2.8 4 Sudeste 23 Sudeste 0 824.4 -0.1 62
2019-12-07 06:00:00 2.8 6 Sudeste 14 Sudeste 0 824.1 -0.4 60
2019-12-07 05:00:00 1.4 7 Sur 14 Sur 0 824.2 -0.4 73
2019-12-07 04:00:00 2.7 8 Sur 17 Sur 0 824.5 -0.3 64
2019-12-07 03:00:00 1.6 7 Sudeste 15 Sur 0 824.5 -0.3 80
2019-12-07 02:00:00 0.9 5 Sudeste 11 Sudeste 0 824.6 0.1 83
2019-12-07 01:00:00 1.8 4 Sur 9 Sur 0 824.8 0.3 71
2019-12-07 00:00:00 1.7 3 Sudeste 12 Sur 0 824.8 0.7 67
2019-12-06 23:00:00 1.8 11 Sur 15 Sudoeste 0 824.5 0.6 72
2019-12-06 22:00:00 1.7 8 Sur 16 Sur 0 824.5 0.9 76
2019-12-06 21:00:00 2.2 2 Sudoeste 10 Sudeste 0 824.1 0.7 65
2019-12-06 20:00:00 1.4 3 Sudeste 11 Sudeste 0 823.9 0.4 79
2019-12-06 19:00:00 1.4 4 Sur 12 Sur 0 823.6 0.2 88
2019-12-06 18:00:00 1.9 4 Sudeste 9 Sur 0 823.4 0.1 93
2019-12-06 17:00:00 2.9 0 Calma 6 Sudoeste 0 823.5 -0.1 90
2019-12-06 16:00:00 4.4 2 Sudoeste 8 Sur 0 823.4 -0.6 83
2019-12-06 15:00:00 5.2 4 Norte 10 Sur 0 823.3 -0.9 80
2019-12-06 14:00:00 6.3 6 Nordeste 9 Nordeste 0 823.6 -0.7 72
2019-12-06 13:00:00 6.3 2 Sudeste 10 Sur 0 824 -0.1 66
2019-12-06 12:00:00 5.5 4 Sudeste 18 Sur 0 824.2 0.6 68
2019-12-06 11:00:00 2 6 Sur 20 Sudeste 0 824.3 1.1 82
2019-12-06 10:00:00 1 3 Noroeste 8 Norte 0 824.1 1.1 86
2019-12-06 09:00:00 0.5 0 Calma 4 Sur 0 823.6 0.9 85
2019-12-06 08:00:00 1.5 3 Oeste 7 Sudeste 0 823.2 0.5 82
2019-12-06 07:00:00 0.6 5 Sur 8 Sur 0 823 0.5 88
2019-12-06 06:00:00 0.9 3 Oeste 8 Noroeste 0 822.7 0.7 88
2019-12-06 05:00:00 0 4 Sudeste 11 Sudoeste 0 822.7 0.8 91
2019-12-06 04:00:00 0.2 6 Sur 44 Sur 0 822.5 0.2 91
2019-12-06 03:00:00 1.7 28 Sur 49 Sur 0 822 -0.6 85
2019-12-06 02:00:00 1 46 Sur 57 Sudeste 0 821.9 -0.9 93
2019-12-06 01:00:00 1.3 41 Sur 53 Sur 0 822.3 0 92
2019-12-06 00:00:00 1.6 39 Sur 53 Sudeste 0 822.6 0.6 91
2019-12-05 23:00:00 1.3 33 Sur 56 Sur 0 822.8 0.9 95
2019-12-05 22:00:00 1.2 36 Sur 75 Sur 0 822.3 1 97
2019-12-05 21:00:00 2.3 31 Sur 75 Sur 0 822 1.2 87
2019-12-05 20:00:00 2.1 22 Sur 68 Sur 0 821.9 1 90
2019-12-05 19:00:00 1.9 22 Sur 68 Nordeste 0 821.3 0.8 94
2019-12-05 18:00:00 2.5 24 Nordeste 68 Nordeste 0 820.8 0.5 88
2019-12-05 17:00:00 2.3 14 Nordeste 50 Este 0 820.9 1.1 91
2019-12-05 16:00:00 3 19 Nordeste 55 Este 0 820.5 0.5 83
2019-12-05 15:00:00 3.2 14 Nordeste 48 Sudoeste 0 820.3 0.1 81
2019-12-05 14:00:00 2.7 24 Sur 55 Sur 0 819.8 -0.7 86
2019-12-05 13:00:00 2.3 20 Nordeste 63 Nordeste 0 820 0.8 85
2019-12-05 12:00:00 1.4 14 Este 48 Sudeste 0 820.2 1.4 91
2019-12-05 11:00:00 1.3 15 Nordeste 58 Este 0 820.5 2.1 91
2019-12-05 10:00:00 0.8 14 Sudeste 62 Este 0 819.2 1.5 92
2019-12-05 09:00:00 0.7 16 Sur 50 Sur 0 818.8 1.7 93
2019-12-05 08:00:00 0.4 17 Sur 37 Sur 0 818.4 1.7 98
2019-12-05 07:00:00 0.7 11 Sur 41 Sudoeste 0 817.7 1.2 95
2019-12-05 06:00:00 1.1 18 Sur 54 Sur 0 817.1 0.8 91
2019-12-05 05:00:00 0.9 12 Sur 40 Sur 0 816.7 0.6 91
2019-12-05 04:00:00 1.1 8 Este 37 Sudeste 0 816.5 0.5 90
2019-12-05 03:00:00 1.4 7 Sur 27 Sur 0 816.3 0.9 85
2019-12-05 02:00:00 2.1 12 Este 26 Este 0 816.1 1.1 69
2019-12-05 01:00:00 2.4 4 Este 13 Sudeste 0 816 1.4 74
2019-12-05 00:00:00 2.2 5 Este 18 Este 0 815.4 0.7 78
2019-12-04 23:00:00 1.6 3 Sudeste 15 Este 0 815 0.5 91
2019-12-04 22:00:00 1.6 6 Sudeste 17 Este 0 814.6 0.4 90
2019-12-04 21:00:00 1.1 7 Sudeste 14 Este 0 814.7 1.1 92
2019-12-04 20:00:00 1.5 4 Este 22 Nordeste 0 814.5 0.9 91
2019-12-04 19:00:00 1.4 5 Nordeste 35 Nordeste 0 814.2 1.1 94
2019-12-04 18:00:00 1.8 22 Nordeste 54 Nordeste 0 813.6 0.9 92
2019-12-04 17:00:00 2 14 Nordeste 35 Norte 0 813.6 0.8 95
2019-12-04 16:00:00 1.9 8 Norte 41 Este 0 813.1 0.1 96
2019-12-04 15:00:00 2.2 13 Norte 44 Nordeste 0 812.7 -0.8 93
2019-12-04 14:00:00 2 13 Sudeste 45 Sudeste 0 812.8 -0.9 95
2019-12-04 13:00:00 1.7 11 Este 50 Sudeste 0 813 -0.6 97
2019-12-04 12:00:00 2 12 Sudeste 45 Nordeste 0 813.5 0.2 93
2019-12-04 11:00:00 2 19 Este 57 Este 0 813.7 0.5 94
2019-12-04 10:00:00 2.1 22 Este 58 Nordeste 0 813.6 0.7 86
2019-12-04 09:00:00 1.7 13 Nordeste 50 Este 0 813.3 0.3 88
2019-12-04 08:00:00 1.4 17 Sudoeste 60 Sudeste 0 813.2 -0.4 95
2019-12-04 07:00:00 1.1 32 Sur 57 Sur 0.2 812.9 -1.4 96
2019-12-04 06:00:00 1.4 28 Sur 44 Sur 0 813 -1.5 91
2019-12-04 05:00:00 0.9 26 Sur 54 Sur 0 813.6 -1.4 96
2019-12-04 04:00:00 0.9 27 Sur 54 Sur 0.2 814.3 -1.2 94
2019-12-04 03:00:00 1.3 26 Sur 47 Sur 0 814.5 -1.5 89
2019-12-04 02:00:00 0.9 24 Sur 49 Sur 0 815 -1.1 92
2019-12-04 01:00:00 1.1 13 Sudoeste 36 Sudoeste 0 815.5 -0.4 86
2019-12-04 00:00:00 0.9 13 Sudoeste 44 Sur 0 816 0.2 80
2019-12-03 23:00:00 0.5 16 Sur 49 Sur 0 816.1 0.5 82
2019-12-03 22:00:00 0 25 Sur 53 Sur 0 815.9 0.6 83
2019-12-03 21:00:00 0.4 15 Sur 44 Sudeste 0 815.8 0.7 76
2019-12-03 20:00:00 0.7 13 Sudeste 45 Sur 0 815.6 0.5 66
2019-12-03 19:00:00 -0.1 30 Sur 40 Sur 0 815.3 0 75
2019-12-03 18:00:00 -0.3 21 Sur 32 Sur 0 815.1 0 78
2019-12-03 17:00:00 -1 3 Este 10 Sur 0 815.1 -0.5 90
2019-12-03 16:00:00 0.7 2 Oeste 7 Sur 0 815.3 -0.8 80
2019-12-03 15:00:00 5.9 0 Calma 8 Norte 0 815.1 -1.6 58
2019-12-03 14:00:00 6.5 2 Sudoeste 6 Norte 0 815.6 -1.4 45
2019-12-03 13:00:00 4.7 3 Sudoeste 19 Sudeste 0 816.1 -0.9 37
2019-12-03 12:00:00 3.6 6 Sudeste 20 Sudeste 0 816.7 -0.2 37
2019-12-03 11:00:00 -0.5 3 Sudeste 14 Sur 0 817 0.2 44
2019-12-03 10:00:00 -1.3 3 Sudeste 17 Sudeste 0 817 0.1 46
2019-12-03 09:00:00 -1.8 7 Sudeste 12 Sudeste 0 816.9 -0.1 51
2019-12-03 08:00:00 -1.1 5 Sur 13 Sur 0 816.8 -0.5 45
2019-12-03 07:00:00 -1.2 9 Sudeste 14 Sudeste 0 816.9 -0.8 47
2019-12-03 06:00:00 -1.2 4 Sudoeste 12 Sur 0 817 -1 46
2019-12-03 05:00:00 -0.9 4 Sur 12 Sur 0 817.3 -0.8 49
2019-12-03 04:00:00 -1.3 5 Sudoeste 12 Sudeste 0 817.7 -1 54
2019-12-03 03:00:00 -0.9 5 Sudeste 12 Sudeste 0 818 -0.9 52
2019-12-03 02:00:00 -0.8 5 Sur 20 Sur 0 818.1 -0.8 52
2019-12-03 01:00:00 -0.5 5 Sudoeste 31 Sudeste 0 818.7 -0.3 53
2019-12-03 00:00:00 0.6 17 Sudeste 33 Sudeste 0 818.9 -0.1 48
2019-12-02 23:00:00 0.4 10 Este 26 Sudeste 0 818.9 0.1 48
2019-12-02 22:00:00 -0.8 7 Sudeste 22 Sudeste 0 819 1 67
2019-12-02 21:00:00 0 8 Sur 23 Sudeste 0 819 1 63
2019-12-02 20:00:00 0.2 12 Sudeste 58 Sudeste 0 818.8 0.7 64
2019-12-02 19:00:00 -0.3 38 Sudeste 62 Sudeste 0 818 0.1 74
2019-12-02 18:00:00 -0.3 37 Sudeste 68 Sudeste 0 818 0.3 78
2019-12-02 17:00:00 0 34 Sudeste 59 Sudeste 0 818.1 0.3 76
2019-12-02 16:00:00 0 14 Este 39 Nordeste 0 817.9 0 82
2019-12-02 15:00:00 1.4 19 Sudeste 46 Este 0 817.7 -0.6 76
2019-12-02 14:00:00 2.3 11 Sudeste 39 Sudeste 0 817.8 -0.1 72
2019-12-02 13:00:00 0 13 Este 49 Sur 0 817.9 0.7 86
2019-12-02 12:00:00 0.1 23 Sur 73 Sur 0 818.3 1.4 80
2019-12-02 11:00:00 -1.1 38 Sur 74 Sur 0 817.9 1.1 87
2019-12-02 10:00:00 -1.1 29 Sudeste 60 Este 0 817.2 1.2 87
2019-12-02 09:00:00 -1.3 28 Sudeste 62 Sudeste 0 816.9 1.5 90
2019-12-02 08:00:00 -1.8 28 Sudeste 60 Sur 0 816.8 1.6 95
2019-12-02 07:00:00 -1.6 25 Sudeste 61 Este 0 816 1 91
2019-12-02 06:00:00 -1.4 38 Sudeste 68 Sudeste 0 815.4 0.6 87
2019-12-02 05:00:00 -0.5 35 Sudeste 72 Sudeste 0 815.2 0.1 74
2019-12-02 04:00:00 0 37 Sudeste 64 Sudeste 0 815 0 72
2019-12-02 03:00:00 -0.4 37 Sudeste 63 Sudeste 0 814.8 -0.1 80
2019-12-02 02:00:00 -0.4 22 Sudeste 52 Sudeste 0 815.1 0.1 83
2019-12-02 01:00:00 -0.2 22 Sudeste 52 Sur 0 815 0.8 84
2019-12-02 00:00:00 -0.2 22 Este 54 Sudeste 0 814.9 0.8 88
2019-12-01 23:00:00 -0.1 17 Este 46 Este 0.4 815 0.9 96
2019-12-01 22:00:00 0 26 Sudeste 51 Este 0 814.2 0.5 95
2019-12-01 21:00:00 0.2 18 Este 53 Este 0 814.1 1 96
2019-12-01 20:00:00 -0.1 8 Este 22 Este 0 814.1 0.9 98
2019-12-01 19:00:00 0.3 6 Este 26 Sur 0 813.7 0.6 94
2019-12-01 18:00:00 0.4 19 Sudeste 30 Sur 0.4 813.1 0 95
2019-12-01 17:00:00 0.2 5 Este 22 Sudeste 0.4 813.2 -0.1 97
2019-12-01 16:00:00 0.5 0 Calma 6 Oeste 0.8 813.1 -0.5 98
2019-12-01 15:00:00 0.7 2 Noroeste 11 Nordeste 0.2 813.1 -0.7 97
2019-12-01 14:00:00 1 6 Norte 22 Sur 0 813.3 -0.3 96
2019-12-01 13:00:00 0.9 4 Nordeste 33 Sur 0 813.6 -0.1 94
2019-12-01 12:00:00 1 19 Sur 41 Sudeste 0 813.8 0.5 85
2019-12-01 11:00:00 0.2 35 Sur 49 Sudeste 0.2 813.6 0.2 79
2019-12-01 10:00:00 0.6 17 Sur 33 Sur 0 813.7 0.3 87
2019-12-01 09:00:00 0.4 18 Sur 42 Sur 0 813.3 0 83
2019-12-01 08:00:00 -0.6 22 Sur 31 Sur 0 813.4 -0.6 86
2019-12-01 07:00:00 -0.7 15 Sur 39 Sudoeste 0 813.4 -1.1 85
2019-12-01 06:00:00 -1.1 26 Sur 33 Sur 0 813.3 -1.9 90
2019-12-01 05:00:00 -1.5 6 Sudoeste 30 Sudeste 0 814 -1.6 96
2019-12-01 04:00:00 -1.1 12 Sudoeste 23 Sur 0 814.5 -1.5 97
2019-12-01 03:00:00 -1.1 7 Sur 25 Sudoeste 0 815.2 -1.1 98
2019-12-01 02:00:00 -0.9 8 Sur 19 Sur 0.2 815.6 -1.1 99
2019-12-01 01:00:00 -0.8 6 Este 31 Nordeste 0.6 816 -1.1 99
2019-12-01 00:00:00 -0.8 9 Noroeste 41 Norte 0.6 816.3 -1.9 99
2019-11-30 23:00:00 -0.7 10 Noroeste 38 Noroeste 1 816.7 -2.3 99
2019-11-30 22:00:00 -1 10 Norte 53 Noroeste 0.2 817.1 -1.1 99
2019-11-30 21:00:00 -1.5 16 Sur 54 Sur 0.6 818.2 -0.5 100
2019-11-30 20:00:00 -0.4 19 Norte 64 Norte 1.6 819 0.7 100
2019-11-30 19:00:00 0.4 8 Oeste 37 Sudoeste 1.8 818.2 0.5 99
2019-11-30 18:00:00 0.8 12 Nordeste 41 Oeste 3.8 818.7 0.3 99
2019-11-30 17:00:00 2.8 15 Nordeste 69 Sudoeste 3.2 818.3 -0.8 99
2019-11-30 16:00:00 5.3 27 Sur 61 Sudoeste 0.2 817.7 -2.4 98
2019-11-30 15:00:00 5.4 31 Sudoeste 60 Sudoeste 0.2 818.4 -2.3 98
2019-11-30 14:00:00 5.4 32 Sur 57 Sudoeste 0 819.1 -2.4 98
2019-11-30 13:00:00 5.2 30 Sur 61 Sur 0 820.1 -1.4 98
2019-11-30 12:00:00 5.1 36 Sur 57 Sudoeste 0 820.7 -0.7 97
2019-11-30 11:00:00 6.1 30 Sur 58 Sur 0 821.5 -0.2 91
2019-11-30 10:00:00 6.1 21 Sur 59 Sudoeste 0 821.5 -0.3 91
2019-11-30 09:00:00 5.6 25 Sur 50 Sur 0 821.4 -0.9 90
2019-11-30 08:00:00 5.4 22 Sur 47 Sur 0 821.7 -0.6 89
2019-11-30 07:00:00 5.7 18 Sur 54 Sur 0 821.8 -1 94
2019-11-30 06:00:00 6 13 Sur 51 Sur 0 822.3 -0.6 93
2019-11-30 05:00:00 6.1 13 Sur 38 Noroeste 0 822.3 -0.5 96
2019-11-30 04:00:00 6 10 Norte 45 Sudeste 0 822.8 -0.7 97
2019-11-30 03:00:00 6 17 Sudeste 42 Sur 0 822.9 -1 96
2019-11-30 02:00:00 5.8 23 Sur 53 Sur 1.2 822.8 -0.8 94
2019-11-30 01:00:00 5.9 9 Sudeste 32 Sur 2.4 823.5 -0.3 93
2019-11-30 00:00:00 5.2 9 Sur 35 Sur 0.8 823.9 0.1 94
2019-11-29 23:00:00 4.9 19 Sur 33 Sur 0 823.6 -0.1 88
2019-11-29 22:00:00 4.8 8 Oeste 28 Sudoeste 0 823.8 0.2 96
2019-11-29 21:00:00 4.2 17 Sur 29 Sur 0 823.8 0.2 98
2019-11-29 20:00:00 4.3 15 Sudoeste 34 Sudoeste 0 823.7 0.2 98
2019-11-29 19:00:00 4.9 8 Noroeste 27 Sur 0 823.6 0.4 98
2019-11-29 18:00:00 4.8 10 Sur 24 Sur 0 823.6 0.6 98
2019-11-29 17:00:00 5.5 10 Noroeste 36 Noroeste 0 823.5 0.4 98
2019-11-29 16:00:00 5.6 14 Noroeste 45 Norte 0.2 823.2 -0.2 98
2019-11-29 15:00:00 5.6 9 Nordeste 35 Sudoeste 0.2 823 -0.5 98
2019-11-29 14:00:00 5.9 9 Este 30 Sur 1.4 823.1 -0.5 98
2019-11-29 13:00:00 6.2 7 Noroeste 33 Oeste 1.8 823.4 0.4 98
2019-11-29 12:00:00 6.4 5 Este 26 Oeste 0.6 823.5 1 98
2019-11-29 11:00:00 5.8 9 Norte 30 Sur 0.2 823.6 1.8 98
2019-11-29 10:00:00 5.5 13 Sudeste 41 Norte 0.6 823 1.7 98
2019-11-29 09:00:00 5.6 11 Sudeste 48 Noroeste 0.4 822.5 1.5 98
2019-11-29 08:00:00 5.7 15 Noroeste 41 Noroeste 1.4 821.8 1.3 98
2019-11-29 07:00:00 5.7 11 Sudoeste 37 Oeste 2.2 821.3 1.1 98
2019-11-29 06:00:00 5.7 14 Sur 48 Oeste 3.6 821 0.9 98
2019-11-29 05:00:00 5.6 15 Norte 48 Oeste 2.2 820.5 0.6 98
2019-11-29 04:00:00 5.7 18 Sudeste 62 Sudoeste 3.6 820.2 0.3 98
2019-11-29 03:00:00 5.6 16 Sudeste 67 Sudeste 2.2 820.1 0.7 98
2019-11-29 02:00:00 5.5 22 Noroeste 90 Noroeste 2 819.9 0.5 98
2019-11-29 01:00:00 5.4 23 Oeste 82 Norte 2 819.9 0.4 98
2019-11-29 00:00:00 5.2 20 Sudoeste 67 Oeste 1.2 819.4 0.2 98
2019-11-28 23:00:00 4.7 14 Nordeste 62 Noroeste 0.6 819.4 0.5 97
2019-11-28 22:00:00 4.5 18 Nordeste 71 Noroeste 0 819.5 1 94
2019-11-28 21:00:00 4.7 22 Norte 72 Noroeste 0 819.2 1.4 91
2019-11-28 20:00:00 4.5 21 Sudoeste 77 Noroeste 0 818.9 0.9 92
2019-11-28 19:00:00 4.9 20 Nordeste 63 Noroeste 0 818.5 0.6 89
2019-11-28 18:00:00 4.6 22 Sudeste 54 Noroeste 0 817.8 0.2 87
2019-11-28 17:00:00 4 15 Este 58 Sudoeste 0 818 -0.5 85
2019-11-28 16:00:00 4 11 Este 51 Sur 0 817.9 -0.8 89
2019-11-28 15:00:00 3.9 21 Sudeste 77 Sur 0 817.6 -1.8 89
2019-11-28 14:00:00 4.2 15 Nordeste 55 Sudoeste 0 818.5 -1.3 91
2019-11-28 13:00:00 4.2 14 Este 55 Noroeste 0 818.7 -0.5 95
2019-11-28 12:00:00 3.4 19 Sur 57 Sur 0 819.4 0.9 98
2019-11-28 11:00:00 3.2 15 Nordeste 53 Oeste 0 819.8 1.9 99
2019-11-28 10:00:00 3 21 Sudoeste 69 Oeste 0 819.2 1.7 99
2019-11-28 09:00:00 3.4 20 Nordeste 66 Norte 0.2 818.5 1.5 99
2019-11-28 08:00:00 3.5 18 Nordeste 74 Sudoeste 0.4 817.9 0.6 99
2019-11-28 07:00:00 3.2 18 Sur 59 Noroeste 0 817.5 0.2 99
2019-11-28 06:00:00 2.6 16 Oeste 50 Oeste 0 817 0.1 99
2019-11-28 05:00:00 2.2 12 Este 54 Noroeste 0.2 817.3 0.8 99
2019-11-28 04:00:00 2.3 17 Sudoeste 66 Noroeste 0 817.3 0.5 99
2019-11-28 03:00:00 2.3 16 Sudeste 60 Sudoeste 0 816.9 0.1 99
2019-11-28 02:00:00 2.1 21 Sudoeste 76 Noroeste 0 816.5 0 99
2019-11-28 01:00:00 2 19 Nordeste 70 Oeste 0 816.8 0.6 99
2019-11-28 00:00:00 2 18 Noroeste 66 Noroeste 0 816.8 0.9 99
2019-11-27 23:00:00 2.2 19 Oeste 69 Noroeste 0 816.5 0.7 99
2019-11-27 22:00:00 2.1 18 Noroeste 62 Oeste 0 816.2 0.5 98
2019-11-27 21:00:00 1.9 15 Nordeste 68 Noroeste 0 815.9 0.8 97
2019-11-27 20:00:00 2.1 18 Sur 62 Noroeste 0 815.8 0.9 94
2019-11-27 19:00:00 2.1 20 Norte 66 Noroeste 0 815.7 1.2 94
2019-11-27 18:00:00 2 16 Nordeste 66 Noroeste 0 815.1 0.6 94
2019-11-27 17:00:00 2.3 17 Nordeste 56 Sudeste 0 814.9 0 94
2019-11-27 16:00:00 2.4 14 Este 59 Sur 0 814.5 -0.8 93
2019-11-27 15:00:00 2.5 23 Sur 52 Sudoeste 0 814.5 -1.3 88
2019-11-27 14:00:00 1.8 13 Sudoeste 60 Noroeste 0 814.9 -0.8 97
2019-11-27 06:00:00 0.7 22 Sur 82 Oeste 0 813.2 0.3 99
2019-11-27 05:00:00 0.9 21 Noroeste 62 Sudoeste 0 813.3 0.8 99
2019-11-27 04:00:00 1.9 17 Sudeste 73 Norte 0 813.3 0.3 99
2019-11-27 03:00:00 2.8 23 Noroeste 80 Norte 0 812.9 -0.1 99
2019-11-27 02:00:00 3.1 19 Norte 65 Norte 0 812.5 0.3 99
2019-11-27 01:00:00 3.6 23 Norte 97 Noroeste 0.2 813 0.5 98
2019-11-27 00:00:00 4.1 26 Noroeste 73 Noroeste 1.8 813 0 97
2019-11-26 23:00:00 5 32 Sur 84 Sudoeste 0 812.2 -0.4 88
2019-11-26 22:00:00 5.3 22 Sur 96 Sudoeste 0 812.5 -0.2 90
2019-11-26 21:00:00 5.6 40 Sudoeste 75 Sudoeste 0.6 813 0.3 98
2019-11-26 20:00:00 5.3 31 Sudoeste 75 Sudoeste 1.4 812.6 0 98
2019-11-26 19:00:00 5.1 37 Sur 71 Sur 0.2 812.7 -0.9 98
2019-11-26 18:00:00 5 46 Sur 83 Sur 0.4 812.7 -1.1 98
2019-11-26 17:00:00 4.7 49 Sur 70 Sur 0.8 812.6 -2.4 97
2019-11-26 16:00:00 6.4 41 Sur 73 Sur 0 813.6 -2.4 88
2019-11-26 15:00:00 9 36 Sur 62 Sudoeste 0 813.8 -2.8 77
2019-11-26 14:00:00 7.5 37 Sur 66 Sur 0 815 -2.5 83
2019-11-26 13:00:00 8.2 30 Sur 80 Sur 0 816 -1.3 88
2019-11-26 12:00:00 7.1 36 Sur 66 Sur 0.2 816.6 -0.8 90
2019-11-26 11:00:00 7.7 29 Sur 67 Sudoeste 0 817.5 0.1 78
2019-11-26 10:00:00 8 24 Sur 60 Noroeste 0 817.3 0 78
2019-11-26 09:00:00 6.8 18 Sudeste 52 Sudeste 0.8 817.4 -0.2 98
2019-11-26 08:00:00 7.2 13 Nordeste 43 Noroeste 0.8 817.4 -0.7 97
2019-11-26 07:00:00 7.1 12 Norte 44 Sudoeste 1 817.3 -1 97
2019-11-26 06:00:00 7.1 13 Oeste 41 Oeste 0 817.6 -0.9 96
2019-11-26 05:00:00 6.4 17 Sudeste 55 Sur 0 818.1 -0.6 51
2019-11-26 04:00:00 6 13 Sur 36 Sur 0 818.3 -1.1 47
2019-11-26 03:00:00 6.3 11 Sudeste 39 Sur 0 818.5 -1.3 50
2019-11-26 02:00:00 3.3 17 Sur 46 Sudoeste 0 818.7 -0.9 87
2019-11-26 01:00:00 2.7 13 Sudoeste 35 Sudoeste 0 819.4 -0.2 99
2019-11-26 00:00:00 2.9 11 Sudeste 37 Sur 0 819.8 0.4 99
2019-11-25 23:00:00 2.9 12 Sudoeste 45 Noroeste 0 819.6 0.2 99
2019-11-25 22:00:00 3.3 12 Nordeste 50 Noroeste 0 819.6 1 99
2019-11-25 21:00:00 3.7 19 Noroeste 59 Noroeste 0 819.4 0.8 99
2019-11-25 20:00:00 4 13 Noroeste 56 Noroeste 0 819.4 1 99
2019-11-25 19:00:00 3.8 14 Sur 49 Sudoeste 0 818.6 0.5 99
2019-11-25 18:00:00 3.8 11 Noroeste 52 Noroeste 0 818.6 0.8 99
2019-11-25 17:00:00 3.8 15 Oeste 53 Norte 0 818.4 0.6 99
2019-11-25 16:00:00 3.7 15 Noroeste 52 Noroeste 0 818.1 0.3 99
2019-11-25 15:00:00 3.8 13 Norte 46 Norte 0 817.8 -0.3 99
2019-11-25 14:00:00 4.3 15 Noroeste 42 Oeste 0 817.8 -0.3 99
2019-11-25 13:00:00 4.1 13 Norte 53 Noroeste 0 817.8 0.6 99
2019-11-25 12:00:00 4.1 12 Noroeste 55 Oeste 0 818.1 1 99
2019-11-25 11:00:00 3.8 19 Noroeste 54 Noroeste 0 818.1 1.1 99
2019-11-25 10:00:00 3.6 20 Noroeste 65 Noroeste 0 817.2 0.6 99
2019-11-25 09:00:00 3.2 15 Norte 55 Oeste 0 817.1 1.1 99
2019-11-25 08:00:00 3.7 17 Nordeste 60 Nordeste 0 817 0.8 99
2019-11-25 07:00:00 3.5 19 Norte 64 Norte 0.2 816.6 0.4 99
2019-11-25 06:00:00 4 21 Norte 72 Norte 0.2 816 0.3 99
2019-11-25 05:00:00 3.7 15 Nordeste 82 Noroeste 0.4 816.2 0.6 99
2019-11-25 04:00:00 4.9 21 Nordeste 61 Sudoeste 1.4 816.2 0.1 98
2019-11-25 03:00:00 5.6 26 Sur 94 Norte 0.8 815.7 -0.6 98
2019-11-25 02:00:00 6 27 Noroeste 80 Noroeste 1.4 815.6 -1 98
2019-11-25 01:00:00 6 27 Noroeste 87 Noroeste 1 816.1 -0.3 98
2019-11-25 00:00:00 5.5 23 Norte 63 Noroeste 0.4 816.3 0 98
2019-11-24 23:00:00 3.7 20 Sudoeste 63 Sudoeste 0.4 816.6 0.1 99
2019-11-24 22:00:00 3.2 14 Sudeste 64 Noroeste 0.6 816.4 -0.2 99
2019-11-24 21:00:00 2.6 13 Norte 59 Noroeste 0.2 816.3 0.1 99
2019-11-24 20:00:00 0.3 12 Norte 39 Noroeste 0.2 816.5 0.4 99
2019-11-24 19:00:00 -0.1 10 Sudoeste 46 Sudoeste 0.2 816.6 0.6 99
2019-11-24 18:00:00 -0.7 19 Sur 39 Sudoeste 0 816.2 0.2 100
2019-11-24 17:00:00 -0.5 10 Sudoeste 32 Noroeste 0.2 816.1 0.2 99
2019-11-24 16:00:00 -0.6 13 Sudoeste 31 Sur 0.4 816 -0.5 99
2019-11-24 15:00:00 -0.7 12 Sudoeste 32 Sur 0.2 816 -0.9 99
2019-11-24 14:00:00 -1 7 Sudoeste 32 Noroeste 0 815.9 -1.1 99
2019-11-24 13:00:00 -1.1 14 Sur 36 Noroeste 0.2 816.5 0.3 99
2019-11-24 12:00:00 -2 10 Noroeste 26 Noroeste 0 816.9 1.2 99
2019-11-24 11:00:00 -2.1 6 Oeste 30 Oeste 0 817 2 99
2019-11-24 10:00:00 -2.3 8 Oeste 33 Norte 0 816.2 1.7 99
2019-11-24 09:00:00 -2.3 12 Noroeste 47 Norte 0 815.7 1.3 99
2019-11-24 08:00:00 -2.3 19 Noroeste 49 Noroeste 0 815 1 99
2019-11-24 07:00:00 -2.1 16 Noroeste 53 Oeste 0 814.5 0.8 99
2019-11-24 06:00:00 -2.1 17 Noroeste 42 Noroeste 0 814.4 0.9 99
2019-11-24 05:00:00 -1.9 11 Noroeste 44 Oeste 0 814 0.6 99
2019-11-24 04:00:00 -1.8 15 Noroeste 47 Oeste 0 813.7 0.4 99
2019-11-24 03:00:00 -1.7 10 Noroeste 49 Oeste 0 813.5 0.2 99
2019-11-24 02:00:00 -1.5 20 Noroeste 58 Oeste 0 813.4 0.3 100
2019-11-24 01:00:00 -1.3 21 Noroeste 53 Norte 0 813.3 0.5 100
2019-11-24 00:00:00 -1.2 21 Noroeste 62 Norte 0 813.3 1.2 100
2019-11-23 23:00:00 -1.1 18 Norte 54 Norte 0.2 813.1 1.6 100
2019-11-23 22:00:00 -0.9 16 Este 53 Sudoeste 0.2 812.8 1.7 100
2019-11-23 21:00:00 -0.6 14 Nordeste 52 Oeste 0.2 812.1 1.9 100
2019-11-23 20:00:00 -0.5 15 Nordeste 57 Norte 0.4 811.5 2.1 100
2019-11-23 19:00:00 -0.4 20 Norte 52 Noroeste 0.4 811.1 2.6 100
2019-11-23 18:00:00 -0.5 13 Norte 39 Noroeste 0.4 810.2 2.4 99
2019-11-23 17:00:00 -0.6 9 Nordeste 44 Noroeste 0.2 809.4 2.2 99
2019-11-23 16:00:00 -0.7 10 Norte 55 Oeste 0.4 808.5 1.9 99
2019-11-23 15:00:00 -0.9 16 Noroeste 51 Oeste 0.4 807.8 2 99
2019-11-23 14:00:00 -0.8 19 Noroeste 61 Norte 0.4 807.2 2 99
2019-11-23 13:00:00 -1.2 21 Noroeste 74 Noroeste 0.2 806.6 3 99
2019-11-23 12:00:00 -1.7 17 Norte 69 Norte 0 805.8 3.7 99
2019-11-23 11:00:00 -2.4 29 Noroeste 71 Norte 0 805.2 3.7 99
2019-11-23 10:00:00 -2.6 32 Norte 80 Noroeste 0.2 803.6 3.2 99
2019-11-23 09:00:00 -2.5 29 Noroeste 76 Noroeste 0.6 802.1 2.4 99
2019-11-23 08:00:00 -2.2 29 Noroeste 84 Noroeste 0.2 801.5 3.2 99
2019-11-23 07:00:00 -1.7 27 Nordeste 85 Norte 0 800.4 2.8 99
2019-11-23 06:00:00 -1.5 27 Norte 85 Noroeste 0 799.7 2.3 99
2019-11-23 05:00:00 -1.9 21 Norte 75 Norte 0.2 798.3 0.8 99
2019-11-23 04:00:00 -1.7 22 Nordeste 68 Norte 1 797.6 -0.1 100
2019-11-23 03:00:00 -1.2 25 Nordeste 82 Oeste 0.2 797.4 -0.6 100
2019-11-23 02:00:00 -1 27 Noroeste 72 Este 0.6 797.5 -0.3 100
2019-11-23 01:00:00 -0.2 17 Norte 89 Noroeste 1.8 797.7 -0.4 99
2019-11-23 00:00:00 0.1 24 Oeste 76 Noroeste 2.4 798 0 99
2019-11-22 23:00:00 1 23 Nordeste 93 Noroeste 0.4 797.8 -0.5 98
2019-11-22 22:00:00 0.7 22 Este 75 Sudeste 0 798.1 -0.2 98
2019-11-22 21:00:00 1 26 Este 77 Sur 0 798 0.6 99
2019-11-22 20:00:00 1.5 17 Norte 75 Noroeste 0 798.3 1.2 99
2019-11-22 19:00:00 1.8 24 Este 80 Noroeste 2 798.3 0.7 99
2019-11-22 18:00:00 2.5 30 Sur 54 Sudoeste 2.2 797.4 -0.9 99
2019-11-22 17:00:00 3.1 39 Sur 61 Sur 0.4 797.1 -2.1 99
2019-11-22 16:00:00 2.9 41 Sur 73 Sur 0.6 797.6 -2.1 99
2019-11-22 15:00:00 2.7 42 Sur 74 Sudoeste 2.8 798.3 -2.9 98
2019-11-22 14:00:00 2.4 42 Sur 79 Sur 6.2 799.2 -2.8 98
2019-11-22 13:00:00 2.1 42 Sur 101 Sudoeste 1.4 799.7 -3 99
2019-11-22 12:00:00 1.9 47 Sur 92 Sudoeste 1.6 801.2 -2.2 99
2019-11-22 11:00:00 1.5 43 Sur 83 Sudoeste 6 802 -2.1 99
2019-11-22 10:00:00 0.9 53 Sur 93 Sudoeste 4.8 802.7 -1.8 97
2019-11-22 09:00:00 0.7 46 Sur 77 Sur 2.8 803.4 -2.3 96
2019-11-22 08:00:00 0.5 47 Sur 78 Sudoeste 2.4 804.1 -2.4 99
2019-11-22 07:00:00 0.4 40 Sur 69 Sudoeste 0.6 804.5 -2.6 99
2019-11-22 06:00:00 0.3 27 Sur 50 Sudoeste 1.4 805.7 -2 99
2019-11-22 05:00:00 0 28 Sur 52 Sudoeste 1 806.5 -1.1 99
2019-11-22 04:00:00 -0.2 28 Sur 48 Sudoeste 0 807.1 -1.1 99
2019-11-22 03:00:00 -0.3 29 Sur 65 Sudeste 0 807.7 -1.4 99
2019-11-22 02:00:00 -0.4 37 Sur 56 Sudeste 0 807.6 -1.3 99
2019-11-22 01:00:00 -0.6 36 Sur 54 Sur 0 808.2 -2.1 99
2019-11-22 00:00:00 -0.6 32 Sur 56 Sur 0.2 809.1 -0.8 97
2019-11-21 23:00:00 -0.3 34 Sur 51 Sur 0 808.9 -0.9 92
2019-11-21 22:00:00 0.1 16 Sur 36 Sudoeste 0 810.3 0.5 87
2019-11-21 21:00:00 0 18 Sur 40 Sur 0 809.9 0.1 88
2019-11-21 20:00:00 0.1 23 Sur 37 Sudoeste 0 809.8 0.1 89
2019-11-21 19:00:00 0.2 13 Sur 37 Sudoeste 0 809.8 0.1 93
2019-11-21 18:00:00 0 18 Sur 38 Sur 0 809.8 0.5 87
2019-11-21 17:00:00 0.2 14 Sur 33 Sudeste 0.4 809.7 0.3 92
2019-11-21 16:00:00 0.1 9 Sudoeste 45 Sur 0.2 809.7 0 95
2019-11-21 15:00:00 1.1 21 Sur 56 Sudoeste 0.4 809.3 -1 75
2019-11-21 14:00:00 0.9 11 Sur 38 Oeste 0.2 809.4 -0.8 88
2019-11-21 13:00:00 0.5 9 Este 41 Oeste 0 809.7 0 93
2019-11-21 12:00:00 -0.2 13 Norte 52 Oeste 0 810.3 0.7 95
2019-11-21 11:00:00 0 12 Este 50 Noroeste 0.2 810.2 0.8 97
2019-11-21 10:00:00 0 12 Sudeste 54 Sur 1.8 809.7 0.3 96
2019-11-21 09:00:00 -0.1 20 Sur 48 Sur 0 809.6 0.5 87
2019-11-21 08:00:00 -0.1 9 Sur 32 Sur 0 809.4 0.1 86
2019-11-21 07:00:00 -0.7 9 Este 41 Sudoeste 0 809.4 -0.2 94
2019-11-21 06:00:00 -0.4 13 Sudeste 54 Sur 0 809.1 -0.4 90
2019-11-21 05:00:00 -0.9 19 Sur 44 Sur 0 809.3 -0.3 94
2019-11-21 04:00:00 -1 15 Sur 45 Sur 0 809.6 -0.2 90
2019-11-21 03:00:00 -0.8 17 Sur 45 Sudoeste 0 809.5 -0.3 91
2019-11-21 02:00:00 -1.1 9 Este 31 Sur 0 809.6 -0.3 96
2019-11-21 01:00:00 -0.7 13 Sur 34 Sudoeste 0.2 809.8 -0.2 94
2019-11-21 00:00:00 -0.3 19 Sur 34 Sur 0 809.8 -0.1 91
2019-11-20 23:00:00 -0.6 10 Sur 19 Sur 0 809.9 0.1 97
2019-11-20 22:00:00 -0.7 5 Este 30 Sur 0 810 0.4 97
2019-11-20 21:00:00 -0.5 8 Sudeste 36 Sur 0 809.9 0.5 93
2019-11-20 20:00:00 -0.5 18 Sur 40 Sur 0 809.8 0.4 95
2019-11-20 19:00:00 -0.3 19 Sur 46 Sur 0 809.6 0.2 92
2019-11-20 18:00:00 -1.3 30 Sur 48 Sur 0 809.4 0 93
2019-11-20 17:00:00 -1.1 32 Sur 57 Sur 0 809.4 -0.5 94
2019-11-20 16:00:00 -0.7 35 Sur 53 Sudeste 0 809.4 -1.6 91
2019-11-20 15:00:00 -1 36 Sur 50 Sur 0 809.4 -2.2 95
2019-11-20 14:00:00 0.8 28 Sur 45 Sur 0 809.9 -2 87
2019-11-20 13:00:00 1.7 19 Sur 30 Sur 0 811 -0.9 82
2019-11-20 12:00:00 1.6 24 Sur 33 Sur 0 811.6 -0.4 77
2019-11-20 11:00:00 2.2 15 Sur 32 Sur 0 811.9 0.1 72
2019-11-20 10:00:00 1.5 23 Sur 29 Sur 0 811.9 -0.3 69
2019-11-20 09:00:00 0.8 15 Sudoeste 27 Sur 0 812 -0.4 74
2019-11-20 08:00:00 0 17 Sur 26 Sudoeste 0 811.8 -0.9 79
2019-11-20 07:00:00 -0.6 4 Noroeste 17 Oeste 0 812.2 -1.1 81
2019-11-20 06:00:00 0.1 4 Oeste 20 Sudoeste 0 812.4 -1.2 75
2019-11-20 05:00:00 0 14 Sudoeste 23 Sudoeste 0 812.7 -1.3 59
2019-11-20 04:00:00 -0.6 12 Sudoeste 24 Sur 0 813.3 -1.3 38
2019-11-20 03:00:00 -2 9 Sudoeste 21 Sur 0 813.6 -1.5 60
2019-11-20 02:00:00 -2.2 12 Sudoeste 22 Sur 0 814 -1.6 68
2019-11-20 01:00:00 -2.8 12 Sudoeste 22 Sur 0 814.6 -1.2 67
2019-11-20 00:00:00 -3.2 9 Sur 19 Sudoeste 0 815.1 -0.7 70
2019-11-19 23:00:00 -3.7 7 Sudoeste 18 Sudoeste 0 815.6 -0.3 76
2019-11-19 22:00:00 -4.2 12 Sudoeste 18 Sudoeste 0 815.8 -0.1 76
2019-11-19 21:00:00 -4.6 11 Sudoeste 20 Sudoeste 0 815.8 -0.2 82
2019-11-19 20:00:00 -4.3 11 Sudoeste 17 Sudoeste 0 815.9 -0.1 88
2019-11-19 19:00:00 -4.1 13 Sudoeste 17 Sudoeste 0 815.9 -0.3 94
2019-11-19 18:00:00 -1.6 4 Sur 10 Sur 0 816 -0.4 99
2019-11-19 17:00:00 -1.2 4 Norte 12 Oeste 0 816 -0.8 99
2019-11-19 16:00:00 -0.9 3 Sur 10 Sudoeste 0.2 816.2 -1.1 99
2019-11-19 15:00:00 -0.3 3 Oeste 14 Sur 0 816.4 -1.6 99
2019-11-19 14:00:00 -1.1 10 Sur 18 Sudoeste 0 816.8 -1.5 98
2019-11-19 13:00:00 -1.1 10 Sudoeste 20 Sudoeste 0 817.3 -0.9 99
2019-11-19 12:00:00 -1 12 Sur 18 Sur 0 818 0.1 99
2019-11-19 11:00:00 -1.8 8 Sudoeste 21 Norte 0 818.3 0.8 99
2019-11-19 10:00:00 -2 3 Norte 14 Nordeste 0 818.2 0.7 99
2019-11-19 09:00:00 -2.4 4 Sur 15 Nordeste 0 817.9 0.5 99
2019-11-19 08:00:00 -2.8 3 Noroeste 15 Sur 0 817.5 0 98
2019-11-19 07:00:00 -2.9 3 Sudeste 11 Sur 0 817.5 -0.1 98
2019-11-19 06:00:00 -3.2 6 Oeste 12 Oeste 0 817.4 -0.3 98
2019-11-19 05:00:00 -2.9 4 Oeste 13 Noroeste 0 817.5 -0.3 98
2019-11-19 04:00:00 -3.1 5 Noroeste 16 Norte 0 817.6 -0.6 98
2019-11-19 03:00:00 -2.9 2 Norte 11 Nordeste 0 817.7 -0.8 98
2019-11-19 02:00:00 -3.1 3 Nordeste 9 Norte 0 817.8 -0.8 98
2019-11-19 01:00:00 -3 2 Noroeste 22 Norte 0 818.2 -0.2 98
2019-11-19 00:00:00 -2.9 7 Norte 24 Norte 0 818.5 0.5 98
2019-11-18 23:00:00 -3 11 Norte 26 Norte 0 818.6 1 98
2019-11-18 22:00:00 -2.7 9 Norte 30 Nordeste 0 818.4 0.8 99
2019-11-18 21:00:00 -2.5 13 Norte 33 Norte 0 818 0.8 99
2019-11-18 20:00:00 -2.5 15 Norte 35 Norte 0 817.6 0.7 99
2019-11-18 19:00:00 -2.4 6 Nordeste 37 Nordeste 0 817.6 0.9 99
2019-11-18 18:00:00 -2.4 16 Norte 40 Norte 0 817.2 1.1 99
2019-11-18 17:00:00 -2.4 17 Norte 45 Norte 0 816.9 0.8 99
2019-11-18 16:00:00 -2.3 25 Norte 53 Norte 0 816.7 0.6 99
2019-11-18 15:00:00 -2.4 26 Norte 42 Norte 0 816.1 -0.1 99
2019-11-18 14:00:00 -2.4 14 Norte 39 Norte 0 816.1 0.2 99
2019-11-18 13:00:00 -2.6 19 Norte 44 Norte 0 816.1 0.6 98
2019-11-18 12:00:00 -2.9 14 Norte 31 Norte 0 816.2 1.4 98
2019-11-18 11:00:00 -3 15 Norte 43 Nordeste 0 815.9 1.7 98
2019-11-18 10:00:00 -3.4 26 Norte 42 Norte 0 815.5 1.6 98
2019-11-18 09:00:00 -3.5 18 Norte 40 Norte 0 814.8 1.2 98
2019-11-18 08:00:00 -3.4 21 Norte 35 Norte 0 814.2 1.2 98
2019-11-18 07:00:00 -3.4 17 Norte 38 Norte 0 813.9 1.4 98
2019-11-18 06:00:00 -3.3 22 Norte 42 Norte 0 813.6 1.4 98
2019-11-18 05:00:00 -3.1 25 Norte 42 Norte 0 813 0.8 98
2019-11-18 04:00:00 -2.9 13 Norte 29 Norte 0 812.5 0.2 99
2019-11-18 03:00:00 -2.8 11 Norte 35 Norte 0 812.2 0.1 99
2019-11-18 02:00:00 -2.8 13 Norte 41 Norte 0 812.2 0.2 100
2019-11-18 01:00:00 -2.7 10 Noroeste 35 Noroeste 0 812.3 0.2 100
2019-11-18 00:00:00 -2.6 15 Noroeste 46 Oeste 0 812.1 0.2 100
2019-11-17 23:00:00 -2.3 15 Noroeste 43 Norte 0 812 0.5 100
2019-11-17 22:00:00 -1.3 15 Noroeste 37 Norte 0 812.1 0.6 100
2019-11-17 21:00:00 -0.1 10 Norte 62 Norte 0 811.9 -0.1 100
2019-11-17 20:00:00 0.7 22 Norte 66 Noroeste 0 811.5 -0.9 99
2019-11-17 19:00:00 0.9 19 Norte 71 Norte 0 811.5 -0.6 99
2019-11-17 18:00:00 1.1 16 Norte 66 Noroeste 0 812 -0.5 99
2019-11-17 17:00:00 1.4 18 Norte 59 Norte 0 812.4 -0.6 99
2019-11-17 16:00:00 1.8 15 Norte 49 Oeste 0 812.1 -1.1 99
2019-11-17 15:00:00 1.5 13 Nordeste 56 Norte 0 812.5 -1.5 99
2019-11-17 14:00:00 1.4 20 Noroeste 57 Noroeste 0 813 -1.5 99
2019-11-17 13:00:00 0.2 14 Este 56 Oeste 0 813.2 -1.4 99
2019-11-17 12:00:00 0.1 19 Noroeste 82 Noroeste 0 814 -0.6 99
2019-11-17 11:00:00 -0.1 23 Oeste 60 Norte 0 814.5 0.1 99
2019-11-17 10:00:00 -0.1 10 Oeste 37 Noroeste 0 814.6 0.3 99
2019-11-17 09:00:00 -0.6 8 Sudeste 26 Nordeste 0 814.6 -0.1 99
2019-11-17 08:00:00 -2 11 Sudoeste 36 Sur 0 814.4 -0.4 99
2019-11-17 07:00:00 -2.4 8 Sur 43 Noroeste 0 814.3 -0.5 99
2019-11-17 06:00:00 -2.8 12 Noroeste 35 Oeste 0 814.7 -0.2 98
2019-11-17 05:00:00 -3.2 10 Noroeste 43 Sudoeste 0 814.8 -0.4 98
2019-11-17 04:00:00 -3.4 9 Este 37 Oeste 0 814.8 -0.5 98
2019-11-17 03:00:00 -3.5 14 Este 39 Oeste 0 814.9 -0.7 98
2019-11-17 02:00:00 -3.8 14 Oeste 40 Oeste 0 815.2 -0.5 98
2019-11-17 01:00:00 -4 11 Oeste 40 Oeste 0 815.3 -0.3 98
2019-11-17 00:00:00 -3.8 13 Norte 44 Nordeste 0 815.6 -0.1 98
2019-11-16 23:00:00 -3.7 10 Este 43 Sur 0 815.7 0 98
2019-11-16 22:00:00 -3.6 12 Nordeste 40 Norte 0 815.6 0.1 98
2019-11-16 21:00:00 -3 16 Nordeste 44 Nordeste 0 815.7 0.2 98
2019-11-16 20:00:00 -2.7 14 Nordeste 46 Oeste 0 815.7 0.5 98
2019-11-16 19:00:00 -2.8 15 Nordeste 44 Nordeste 0 815.5 0.2 98
2019-11-16 18:00:00 -3 13 Norte 36 Norte 0 815.5 0.6 98
2019-11-16 17:00:00 -2.9 10 Norte 40 Oeste 0 815.2 0.4 98
2019-11-16 16:00:00 -3 9 Este 33 Sudoeste 0 815.3 0.5 98
2019-11-16 15:00:00 -3.3 8 Este 28 Nordeste 0 814.9 0 98
2019-11-16 14:00:00 -3.2 6 Noroeste 31 Nordeste 0 814.8 0 98
2019-11-16 13:00:00 -3.6 8 Oeste 31 Oeste 0 814.8 0.7 98
2019-11-16 12:00:00 -3.9 8 Noroeste 26 Oeste 0 814.9 1.5 98
2019-11-16 11:00:00 -4.5 11 Noroeste 22 Noroeste 0 814.8 2.2 97
2019-11-16 10:00:00 -5.3 9 Sudoeste 24 Noroeste 0 814.1 1.8 97
2019-11-16 09:00:00 -5.2 5 Sudoeste 25 Oeste 0 813.4 1.9 97
2019-11-16 08:00:00 -5.3 9 Oeste 22 Noroeste 0 812.6 1.6 97
2019-11-16 07:00:00 -5.2 8 Norte 21 Norte 0 812.3 1.6 97
2019-11-16 06:00:00 -5 7 Norte 23 Norte 0 811.5 1.4 97
2019-11-16 05:00:00 -5 12 Norte 32 Nordeste 0 811 1.4 97
2019-11-16 04:00:00 -4.8 10 Norte 35 Nordeste 0 810.7 1.2 97
2019-11-16 03:00:00 -4.6 11 Noroeste 23 Norte 0 810.1 0.7 97
2019-11-16 02:00:00 -4.3 8 Noroeste 27 Nordeste 0 809.6 0.7 98
2019-11-16 01:00:00 -4.1 8 Norte 26 Noroeste 0 809.5 1.1 98
2019-11-16 00:00:00 -4.1 8 Noroeste 33 Noroeste 0 809.4 1.5 98
2019-11-15 23:00:00 -3.9 11 Norte 29 Nordeste 0 808.9 1.4 98
2019-11-15 22:00:00 -3.8 7 Noroeste 32 Oeste 0 808.4 1.4 98
2019-11-15 21:00:00 -3.5 10 Noroeste 33 Oeste 0 807.9 1.2 98
2019-11-15 20:00:00 -3.2 5 Nordeste 33 Nordeste 0 807.5 1 98
2019-11-15 19:00:00 -3.1 13 Noroeste 39 Oeste 0 807 0.7 98
2019-11-15 18:00:00 -3.1 9 Norte 31 Noroeste 0 806.7 0.6 98
2019-11-15 17:00:00 -3.1 7 Norte 45 Noroeste 0 806.5 0.3 98
2019-11-15 16:00:00 -3.1 9 Norte 46 Noroeste 0 806.3 0 98
2019-11-15 15:00:00 -3.1 12 Norte 49 Noroeste 0 806.1 -0.5 98
2019-11-15 14:00:00 -3.2 20 Noroeste 50 Norte 0 806.2 -0.4 98
2019-11-15 13:00:00 -3.6 9 Norte 42 Noroeste 0 806.3 0.1 98
2019-11-15 12:00:00 -4 13 Noroeste 40 Noroeste 0 806.6 0.6 98
2019-11-15 11:00:00 -4.4 10 Nordeste 46 Norte 0 806.6 1.2 98
2019-11-15 10:00:00 -4.2 16 Noroeste 41 Noroeste 0 806.2 1.1 98
2019-11-15 09:00:00 -4.2 16 Noroeste 37 Oeste 0 806 1.2 98
2019-11-15 08:00:00 -4.2 12 Noroeste 42 Oeste 0 805.4 0.9 98
2019-11-15 07:00:00 -4.2 11 Nordeste 55 Noroeste 0 805.1 0.3 98
2019-11-15 06:00:00 -4.1 18 Noroeste 53 Norte 0 804.8 0.2 98
2019-11-15 05:00:00 -4 15 Noroeste 50 Noroeste 0 804.5 -0.1 98
2019-11-15 04:00:00 -4 23 Noroeste 63 Noroeste 0 804.8 0.1 98
2019-11-15 03:00:00 -4.2 14 Noroeste 50 Oeste 0 804.6 0.4 98
2019-11-15 02:00:00 -4.2 15 Noroeste 45 Noroeste 0 804.6 1 98
2019-11-15 01:00:00 -4.2 12 Norte 36 Noroeste 0 804.7 1.7 98
2019-11-15 00:00:00 -4 10 Nordeste 42 Nordeste 0 804.2 1.5 98